Terminal Aerodrome Forecast
Issued by NWS Louisville, KY

Home | Current Version | Previous Version | Text Only | Print | Product List | Glossary On
Versions: 1 2 3 4 5 6 7 8 9 10 11 12 13 14 15 16
000
FTUS43 KLMK 151720
TAFBWG
TAF
KBWG 151720Z 1518/1618 27010G19KT P6SM BKN050
     FM160000 22004KT P6SM SCT050
     FM161200 20008KT P6SM BKN250
     FM161500 21013G20KT P6SM SCT250=

USA.gov is the U.S. government's official web portal to all federal, state and local government web resources and services.